WXM80 ListenWXM80 Stop

You find our weather info also at:

UK Metoffice

WeatherCloud

Weather Underground

Northeastern Weather Network

AWEKAS

Citizen Weather Observer Program (CWOP)

HAMweather, WeatherForYou, PWS Weather


Weather Underground History page Text

Daily Summary for January 22, 2017 Units:  Both    English   Metric
« Previous Day
Next Day »
Daily Weekly Monthly Yearly Custom
  High: Low: Average:
Temperature: 47.8 °F /  8.8 °C 41.3 °F /  5.2 °C 43.8 °F /  6.6 °C
Dew Point: 44.2 °F /  6.8 °C 40.2 °F /  4.6 °C 42.5 °F /  5.8 °C
Humidity: 97 % 86 % 95 %
Wind Speed: 14.2 mph /  22.9 km/h - 3.8 mph /  6.1 km/h
Wind Gust: 20.0 mph /  32.2 km/h - -
Wind:- - ENE
Pressure: 29.82 in /  1009.7 hPa 29.67 in /  1004.6 hPa -
Precipitation: 0.00 in /  0 mm    
Historical Graphs
 
 
Tabular Data for January 22, 2017
Time Temperature Dew Point Pressure Wind Wind Speed Wind Gust Humidity Rainfall Rate (Hourly)
00:04 44.9 °F /  7.2 °C 44.1 °F /  6.7 °C 29.75 in /  1007.3 hPa Calm     97 % 0.00 in /  0 mm
00:09 44.9 °F /  7.2 °C 44.1 °F /  6.7 °C 29.75 in /  1007.3 hPa Calm     97 % 0.00 in /  0 mm
00:14 44.9 °F /  7.2 °C 44.1 °F /  6.7 °C 29.75 in /  1007.3 hPa WNW 0.2 mph /  0.3 km/h 1.2 mph /  1.9 km/h 97 % 0.00 in /  0 mm
00:19 44.9 °F /  7.2 °C 44.1 °F /  6.7 °C 29.75 in /  1007.3 hPa WNW 0.1 mph /  0.2 km/h 1.2 mph /  1.9 km/h 97 % 0.00 in /  0 mm
00:24 44.8 °F /  7.1 °C 44.0 °F /  6.7 °C 29.75 in /  1007.3 hPa Calm   1.2 mph /  1.9 km/h 97 % 0.00 in /  0 mm
00:29 44.8 °F /  7.1 °C 44.0 °F /  6.7 °C 29.75 in /  1007.3 hPa Calm     97 % 0.00 in /  0 mm
00:34 44.8 °F /  7.1 °C 44.0 °F /  6.7 °C 29.75 in /  1007.3 hPa WNW 0.4 mph /  0.6 km/h 3.5 mph /  5.6 km/h 97 % 0.00 in /  0 mm
00:39 44.8 °F /  7.1 °C 44.0 °F /  6.7 °C 29.75 in /  1007.3 hPa Calm     97 % 0.00 in /  0 mm
00:44 44.8 °F /  7.1 °C 44.0 °F /  6.7 °C 29.74 in /  1007 hPa Calm   1.2 mph /  1.9 km/h 97 % 0.00 in /  0 mm
00:49 44.8 °F /  7.1 °C 44.0 °F /  6.7 °C 29.74 in /  1007 hPa Calm     97 % 0.00 in /  0 mm
00:54 44.8 °F /  7.1 °C 44.0 °F /  6.7 °C 29.74 in /  1007 hPa Calm     97 % 0.00 in /  0 mm
00:59 44.9 °F /  7.2 °C 44.1 °F /  6.7 °C 29.74 in /  1007 hPa Calm     97 % 0.00 in /  0 mm
01:05 44.9 °F /  7.2 °C 44.1 °F /  6.7 °C 29.73 in /  1006.7 hPa Calm   1.2 mph /  1.9 km/h 97 % 0.00 in /  0 mm
01:10 44.9 °F /  7.2 °C 44.1 °F /  6.7 °C 29.74 in /  1007 hPa Calm     97 % 0.00 in /  0 mm
01:15 44.9 °F /  7.2 °C 44.1 °F /  6.7 °C 29.73 in /  1006.7 hPa Calm     97 % 0.00 in /  0 mm
01:20 44.9 °F /  7.2 °C 44.1 °F /  6.7 °C 29.74 in /  1007 hPa Calm     97 % 0.00 in /  0 mm
01:25 44.9 °F /  7.2 °C 44.1 °F /  6.7 °C 29.73 in /  1006.7 hPa Calm     97 % 0.00 in /  0 mm
01:30 44.9 °F /  7.2 °C 44.1 °F /  6.7 °C 29.73 in /  1006.7 hPa Calm     97 % 0.00 in /  0 mm
01:35 44.8 °F /  7.1 °C 44.0 °F /  6.7 °C 29.74 in /  1007 hPa West 0.1 mph /  0.2 km/h 1.2 mph /  1.9 km/h 97 % 0.00 in /  0 mm
01:40 44.9 °F /  7.2 °C 44.1 °F /  6.7 °C 29.74 in /  1007 hPa SSW 1.9 mph /  3.1 km/h 3.5 mph /  5.6 km/h 97 % 0.00 in /  0 mm
01:45 44.9 °F /  7.2 °C 44.1 °F /  6.7 °C 29.73 in /  1006.7 hPa Calm   1.2 mph /  1.9 km/h 97 % 0.00 in /  0 mm
01:50 44.9 °F /  7.2 °C 44.1 °F /  6.7 °C 29.73 in /  1006.7 hPa Calm     97 % 0.00 in /  0 mm
01:55 44.9 °F /  7.2 °C 44.1 °F /  6.7 °C 29.73 in /  1006.7 hPa SSW 0.1 mph /  0.2 km/h 1.2 mph /  1.9 km/h 97 % 0.00 in /  0 mm
02:00 44.9 °F /  7.2 °C 44.1 °F /  6.7 °C 29.74 in /  1007 hPa SSW 4.0 mph /  6.4 km/h 5.0 mph /  8 km/h 97 % 0.00 in /  0 mm
02:05 44.9 °F /  7.2 °C 44.1 °F /  6.7 °C 29.74 in /  1007 hPa SW 1.3 mph /  2.1 km/h 3.5 mph /  5.6 km/h 97 % 0.00 in /  0 mm
02:10 45.0 °F /  7.2 °C 44.2 °F /  6.8 °C 29.73 in /  1006.7 hPa WSW 0.6 mph /  1 km/h 2.3 mph /  3.7 km/h 97 % 0.00 in /  0 mm
02:15 45.0 °F /  7.2 °C 44.2 °F /  6.8 °C 29.73 in /  1006.7 hPa Calm   1.2 mph /  1.9 km/h 97 % 0.00 in /  0 mm
02:20 45.0 °F /  7.2 °C 44.2 °F /  6.8 °C 29.72 in /  1006.3 hPa Calm     97 % 0.00 in /  0 mm
02:25 45.0 °F /  7.2 °C 44.2 °F /  6.8 °C 29.73 in /  1006.7 hPa Calm   1.2 mph /  1.9 km/h 97 % 0.00 in /  0 mm
02:30 44.9 °F /  7.2 °C 44.1 °F /  6.7 °C 29.72 in /  1006.3 hPa Calm     97 % 0.00 in /  0 mm
02:36 45.0 °F /  7.2 °C 44.2 °F /  6.8 °C 29.72 in /  1006.3 hPa Calm     97 % 0.00 in /  0 mm
02:41 44.9 °F /  7.2 °C 44.1 °F /  6.7 °C 29.73 in /  1006.7 hPa SW 0.5 mph /  0.8 km/h 1.0 mph /  1.6 km/h 97 % 0.00 in /  0 mm
02:46 44.9 °F /  7.2 °C 44.1 °F /  6.7 °C 29.72 in /  1006.3 hPa Calm   1.2 mph /  1.9 km/h 97 % 0.00 in /  0 mm
02:51 44.9 °F /  7.2 °C 44.1 °F /  6.7 °C 29.72 in /  1006.3 hPa Calm   1.2 mph /  1.9 km/h 97 % 0.00 in /  0 mm
02:56 44.9 °F /  7.2 °C 44.1 °F /  6.7 °C 29.72 in /  1006.3 hPa Calm     97 % 0.00 in /  0 mm
03:01 44.9 °F /  7.2 °C 44.1 °F /  6.7 °C 29.72 in /  1006.3 hPa Calm     97 % 0.00 in /  0 mm
03:06 44.9 °F /  7.2 °C 44.1 °F /  6.7 °C 29.72 in /  1006.3 hPa Calm     97 % 0.00 in /  0 mm
03:11 44.8 °F /  7.1 °C 44.0 °F /  6.7 °C 29.72 in /  1006.3 hPa Calm     97 % 0.00 in /  0 mm
03:16 44.8 °F /  7.1 °C 44.0 °F /  6.7 °C 29.72 in /  1006.3 hPa SW 1.1 mph /  1.8 km/h 2.3 mph /  3.7 km/h 97 % 0.00 in /  0 mm
03:21 44.8 °F /  7.1 °C 44.0 °F /  6.7 °C 29.72 in /  1006.3 hPa Calm   1.0 mph /  1.6 km/h 97 % 0.00 in /  0 mm
03:26 44.7 °F /  7.1 °C 43.9 °F /  6.6 °C 29.73 in /  1006.7 hPa SW 1.0 mph /  1.6 km/h 3.5 mph /  5.6 km/h 97 % 0.00 in /  0 mm
03:31 44.7 °F /  7.1 °C 43.9 °F /  6.6 °C 29.72 in /  1006.3 hPa Calm     97 % 0.00 in /  0 mm
03:36 44.7 °F /  7.1 °C 43.9 °F /  6.6 °C 29.73 in /  1006.7 hPa Calm     97 % 0.00 in /  0 mm
03:41 44.7 °F /  7.1 °C 43.9 °F /  6.6 °C 29.71 in /  1006 hPa Calm   1.0 mph /  1.6 km/h 97 % 0.00 in /  0 mm
03:46 44.7 °F /  7.1 °C 43.9 °F /  6.6 °C 29.71 in /  1006 hPa Calm     97 % 0.00 in /  0 mm
03:51 44.7 °F /  7.1 °C 43.9 °F /  6.6 °C 29.70 in /  1005.6 hPa Calm     97 % 0.00 in /  0 mm
03:56 44.7 °F /  7.1 °C 43.9 °F /  6.6 °C 29.70 in /  1005.6 hPa Calm     97 % 0.00 in /  0 mm
04:02 44.6 °F /  7 °C 43.8 °F /  6.6 °C 29.69 in /  1005.3 hPa NE 0.9 mph /  1.4 km/h 2.3 mph /  3.7 km/h 97 % 0.00 in /  0 mm
04:07 44.4 °F /  6.9 °C 43.6 °F /  6.4 °C 29.69 in /  1005.3 hPa NE 1.5 mph /  2.4 km/h 3.5 mph /  5.6 km/h 97 % 0.00 in /  0 mm
04:12 44.3 °F /  6.8 °C 43.5 °F /  6.4 °C 29.69 in /  1005.3 hPa NE 0.8 mph /  1.3 km/h 2.3 mph /  3.7 km/h 97 % 0.00 in /  0 mm
04:17 44.2 °F /  6.8 °C 43.4 °F /  6.3 °C 29.69 in /  1005.3 hPa Calm   1.2 mph /  1.9 km/h 97 % 0.00 in /  0 mm
04:22 44.1 °F /  6.7 °C 43.3 °F /  6.3 °C 29.69 in /  1005.3 hPa NNE 0.5 mph /  0.8 km/h 4.6 mph /  7.4 km/h 97 % 0.00 in /  0 mm
04:27 44.0 °F /  6.7 °C 43.2 °F /  6.2 °C 29.70 in /  1005.6 hPa NNE 0.1 mph /  0.2 km/h 1.2 mph /  1.9 km/h 97 % 0.00 in /  0 mm
04:32 43.9 °F /  6.6 °C 43.1 °F /  6.2 °C 29.69 in /  1005.3 hPa NNE 1.1 mph /  1.8 km/h 2.3 mph /  3.7 km/h 97 % 0.00 in /  0 mm
04:37 43.8 °F /  6.6 °C 43.0 °F /  6.1 °C 29.69 in /  1005.3 hPa Calm     97 % 0.00 in /  0 mm
04:42 43.8 °F /  6.6 °C 43.0 °F /  6.1 °C 29.70 in /  1005.6 hPa Calm     97 % 0.00 in /  0 mm
04:47 43.7 °F /  6.5 °C 42.9 °F /  6.1 °C 29.69 in /  1005.3 hPa Calm     97 % 0.00 in /  0 mm
04:52 43.7 °F /  6.5 °C 42.9 °F /  6.1 °C 29.69 in /  1005.3 hPa Calm     97 % 0.00 in /  0 mm
04:57 43.6 °F /  6.4 °C 42.8 °F /  6 °C 29.70 in /  1005.6 hPa Calm     97 % 0.00 in /  0 mm
05:02 43.6 °F /  6.4 °C 42.8 °F /  6 °C 29.70 in /  1005.6 hPa Calm     97 % 0.00 in /  0 mm
05:07 43.6 °F /  6.4 °C 42.8 °F /  6 °C 29.70 in /  1005.6 hPa Calm     97 % 0.00 in /  0 mm
05:12 43.5 °F /  6.4 °C 42.7 °F /  5.9 °C 29.70 in /  1005.6 hPa Calm     97 % 0.00 in /  0 mm
05:18 43.5 °F /  6.4 °C 42.7 °F /  5.9 °C 29.69 in /  1005.3 hPa Calm     97 % 0.00 in /  0 mm
05:23 43.5 °F /  6.4 °C 42.7 °F /  5.9 °C 29.70 in /  1005.6 hPa Calm     97 % 0.00 in /  0 mm
05:28 43.5 °F /  6.4 °C 42.7 °F /  5.9 °C 29.70 in /  1005.6 hPa Calm     97 % 0.00 in /  0 mm
05:33 43.5 °F /  6.4 °C 42.7 °F /  5.9 °C 29.70 in /  1005.6 hPa Calm     97 % 0.00 in /  0 mm
05:38 43.6 °F /  6.4 °C 42.8 °F /  6 °C 29.70 in /  1005.6 hPa Calm     97 % 0.00 in /  0 mm
05:43 43.6 °F /  6.4 °C 42.8 °F /  6 °C 29.71 in /  1006 hPa Calm     97 % 0.00 in /  0 mm
05:48 43.6 °F /  6.4 °C 42.8 °F /  6 °C 29.70 in /  1005.6 hPa Calm   1.2 mph /  1.9 km/h 97 % 0.00 in /  0 mm
05:53 43.5 °F /  6.4 °C 42.7 °F /  5.9 °C 29.70 in /  1005.6 hPa NNE 1.4 mph /  2.3 km/h 2.3 mph /  3.7 km/h 97 % 0.00 in /  0 mm
05:58 43.4 °F /  6.3 °C 42.6 °F /  5.9 °C 29.70 in /  1005.6 hPa Calm   1.2 mph /  1.9 km/h 97 % 0.00 in /  0 mm
06:03 43.3 °F /  6.3 °C 42.5 °F /  5.8 °C 29.70 in /  1005.6 hPa Calm     97 % 0.00 in /  0 mm
06:08 43.3 °F /  6.3 °C 42.5 °F /  5.8 °C 29.70 in /  1005.6 hPa Calm     97 % 0.00 in /  0 mm
06:13 43.2 °F /  6.2 °C 42.4 °F /  5.8 °C 29.71 in /  1006 hPa NNE 0.1 mph /  0.2 km/h 1.2 mph /  1.9 km/h 97 % 0.00 in /  0 mm
06:18 43.1 °F /  6.2 °C 42.3 °F /  5.7 °C 29.71 in /  1006 hPa Calm     97 % 0.00 in /  0 mm
06:23 43.0 °F /  6.1 °C 42.2 °F /  5.7 °C 29.71 in /  1006 hPa Calm     97 % 0.00 in /  0 mm
06:28 43.0 °F /  6.1 °C 42.2 °F /  5.7 °C 29.71 in /  1006 hPa Calm     97 % 0.00 in /  0 mm
06:33 42.9 °F /  6.1 °C 42.1 °F /  5.6 °C 29.71 in /  1006 hPa Calm     97 % 0.00 in /  0 mm
06:38 42.8 °F /  6 °C 42.0 °F /  5.6 °C 29.71 in /  1006 hPa Calm     97 % 0.00 in /  0 mm
06:44 42.8 °F /  6 °C 42.0 °F /  5.6 °C 29.72 in /  1006.3 hPa Calm     97 % 0.00 in /  0 mm
06:49 42.7 °F /  5.9 °C 41.9 °F /  5.5 °C 29.72 in /  1006.3 hPa Calm     97 % 0.00 in /  0 mm
06:54 42.7 °F /  5.9 °C 41.9 °F /  5.5 °C 29.72 in /  1006.3 hPa Calm     97 % 0.00 in /  0 mm
06:59 42.7 °F /  5.9 °C 41.9 °F /  5.5 °C 29.72 in /  1006.3 hPa Calm     97 % 0.00 in /  0 mm
07:04 42.7 °F /  5.9 °C 41.9 °F /  5.5 °C 29.72 in /  1006.3 hPa Calm     97 % 0.00 in /  0 mm
07:09 42.7 °F /  5.9 °C 41.9 °F /  5.5 °C 29.72 in /  1006.3 hPa Calm     97 % 0.00 in /  0 mm
07:14 42.7 °F /  5.9 °C 41.9 °F /  5.5 °C 29.72 in /  1006.3 hPa Calm     97 % 0.00 in /  0 mm
07:19 42.8 °F /  6 °C 42.0 °F /  5.6 °C 29.73 in /  1006.7 hPa Calm     97 % 0.00 in /  0 mm
07:24 42.8 °F /  6 °C 42.0 °F /  5.6 °C 29.72 in /  1006.3 hPa Calm     97 % 0.00 in /  0 mm
07:29 42.9 °F /  6.1 °C 42.1 °F /  5.6 °C 29.72 in /  1006.3 hPa Calm     97 % 0.00 in /  0 mm
07:34 42.9 °F /  6.1 °C 42.1 °F /  5.6 °C 29.71 in /  1006 hPa Calm     97 % 0.00 in /  0 mm
07:39 43.1 °F /  6.2 °C 42.3 °F /  5.7 °C 29.71 in /  1006 hPa NNE 0.5 mph /  0.8 km/h 2.3 mph /  3.7 km/h 97 % 0.00 in /  0 mm
07:44 43.2 °F /  6.2 °C 42.4 °F /  5.8 °C 29.71 in /  1006 hPa Calm     97 % 0.00 in /  0 mm
07:49 43.2 °F /  6.2 °C 42.4 °F /  5.8 °C 29.71 in /  1006 hPa Calm     97 % 0.00 in /  0 mm
07:54 43.2 °F /  6.2 °C 42.4 °F /  5.8 °C 29.71 in /  1006 hPa NNE 0.1 mph /  0.2 km/h   97 % 0.00 in /  0 mm
07:59 43.3 °F /  6.3 °C 42.5 °F /  5.8 °C 29.72 in /  1006.3 hPa Calm     97 % 0.00 in /  0 mm
08:04 43.3 °F /  6.3 °C 42.5 °F /  5.8 °C 29.71 in /  1006 hPa NNE 1.4 mph /  2.3 km/h 2.3 mph /  3.7 km/h 97 % 0.00 in /  0 mm
08:09 43.4 °F /  6.3 °C 42.6 °F /  5.9 °C 29.72 in /  1006.3 hPa NNE 1.5 mph /  2.4 km/h 2.3 mph /  3.7 km/h 97 % 0.00 in /  0 mm
08:14 43.6 °F /  6.4 °C 42.8 °F /  6 °C 29.71 in /  1006 hPa Calm   1.2 mph /  1.9 km/h 97 % 0.00 in /  0 mm
08:19 43.6 °F /  6.4 °C 42.8 °F /  6 °C 29.72 in /  1006.3 hPa NNE 1.3 mph /  2.1 km/h 3.5 mph /  5.6 km/h 97 % 0.00 in /  0 mm
08:24 43.6 °F /  6.4 °C 42.8 °F /  6 °C 29.71 in /  1006 hPa NE 0.8 mph /  1.3 km/h 3.5 mph /  5.6 km/h 97 % 0.00 in /  0 mm
08:29 43.5 °F /  6.4 °C 42.7 °F /  5.9 °C 29.70 in /  1005.6 hPa NE 0.6 mph /  1 km/h 2.0 mph /  3.2 km/h 97 % 0.00 in /  0 mm
08:34 43.4 °F /  6.3 °C 42.6 °F /  5.9 °C 29.71 in /  1006 hPa Calm     97 % 0.00 in /  0 mm
08:39 43.3 °F /  6.3 °C 42.5 °F /  5.8 °C 29.71 in /  1006 hPa NE 0.5 mph /  0.8 km/h 1.2 mph /  1.9 km/h 97 % 0.00 in /  0 mm
08:44 43.0 °F /  6.1 °C 42.2 °F /  5.7 °C 29.71 in /  1006 hPa ENE 2.3 mph /  3.7 km/h 3.5 mph /  5.6 km/h 97 % 0.00 in /  0 mm
08:49 42.8 °F /  6 °C 42.0 °F /  5.6 °C 29.70 in /  1005.6 hPa ENE 2.9 mph /  4.7 km/h 4.0 mph /  6.4 km/h 97 % 0.00 in /  0 mm
08:54 42.8 °F /  6 °C 42.0 °F /  5.6 °C 29.70 in /  1005.6 hPa ENE 1.1 mph /  1.8 km/h 3.0 mph /  4.8 km/h 97 % 0.00 in /  0 mm
08:59 42.8 °F /  6 °C 42.0 °F /  5.6 °C 29.70 in /  1005.6 hPa ENE 3.5 mph /  5.6 km/h 4.6 mph /  7.4 km/h 97 % 0.00 in /  0 mm
09:04 42.7 °F /  5.9 °C 41.9 °F /  5.5 °C 29.70 in /  1005.6 hPa NE 3.3 mph /  5.3 km/h 5.8 mph /  9.3 km/h 97 % 0.00 in /  0 mm
09:09 42.6 °F /  5.9 °C 41.8 °F /  5.4 °C 29.71 in /  1006 hPa ENE 1.9 mph /  3.1 km/h 3.5 mph /  5.6 km/h 97 % 0.00 in /  0 mm
09:14 42.6 °F /  5.9 °C 41.8 °F /  5.4 °C 29.71 in /  1006 hPa NE 3.0 mph /  4.8 km/h 4.6 mph /  7.4 km/h 97 % 0.00 in /  0 mm
09:20 42.6 °F /  5.9 °C 41.8 °F /  5.4 °C 29.71 in /  1006 hPa ENE 3.4 mph /  5.5 km/h 4.6 mph /  7.4 km/h 97 % 0.00 in /  0 mm
09:25 42.7 °F /  5.9 °C 41.9 °F /  5.5 °C 29.71 in /  1006 hPa ENE 2.4 mph /  3.9 km/h 4.0 mph /  6.4 km/h 97 % 0.00 in /  0 mm
09:30 42.7 °F /  5.9 °C 41.9 °F /  5.5 °C 29.72 in /  1006.3 hPa ENE 2.4 mph /  3.9 km/h 3.5 mph /  5.6 km/h 97 % 0.00 in /  0 mm
09:35 42.9 °F /  6.1 °C 42.1 °F /  5.6 °C 29.72 in /  1006.3 hPa NE 3.9 mph /  6.3 km/h 5.0 mph /  8 km/h 97 % 0.00 in /  0 mm
09:40 42.9 °F /  6.1 °C 42.1 °F /  5.6 °C 29.72 in /  1006.3 hPa ENE 2.9 mph /  4.7 km/h 4.6 mph /  7.4 km/h 97 % 0.00 in /  0 mm
09:45 42.9 °F /  6.1 °C 42.1 °F /  5.6 °C 29.72 in /  1006.3 hPa ENE 3.1 mph /  5 km/h 5.8 mph /  9.3 km/h 97 % 0.00 in /  0 mm
09:50 43.0 °F /  6.1 °C 42.2 °F /  5.7 °C 29.73 in /  1006.7 hPa ENE 3.0 mph /  4.8 km/h 4.6 mph /  7.4 km/h 97 % 0.00 in /  0 mm
09:55 43.0 °F /  6.1 °C 42.2 °F /  5.7 °C 29.72 in /  1006.3 hPa East 2.0 mph /  3.2 km/h 4.6 mph /  7.4 km/h 97 % 0.00 in /  0 mm
10:00 42.9 °F /  6.1 °C 42.1 °F /  5.6 °C 29.72 in /  1006.3 hPa ENE 3.2 mph /  5.1 km/h 4.6 mph /  7.4 km/h 97 % 0.00 in /  0 mm
10:05 42.7 °F /  5.9 °C 41.9 °F /  5.5 °C 29.72 in /  1006.3 hPa ENE 3.9 mph /  6.3 km/h 5.0 mph /  8 km/h 97 % 0.00 in /  0 mm
10:10 42.5 °F /  5.8 °C 41.7 °F /  5.4 °C 29.72 in /  1006.3 hPa ENE 3.4 mph /  5.5 km/h 6.9 mph /  11.1 km/h 97 % 0.00 in /  0 mm
10:15 42.3 °F /  5.7 °C 41.5 °F /  5.3 °C 29.72 in /  1006.3 hPa ENE 3.8 mph /  6.1 km/h 6.9 mph /  11.1 km/h 97 % 0.00 in /  0 mm
10:20 42.3 °F /  5.7 °C 41.5 °F /  5.3 °C 29.72 in /  1006.3 hPa NE 2.4 mph /  3.9 km/h 4.6 mph /  7.4 km/h 97 % 0.00 in /  0 mm
10:25 42.3 °F /  5.7 °C 41.5 °F /  5.3 °C 29.73 in /  1006.7 hPa ENE 3.4 mph /  5.5 km/h 4.0 mph /  6.4 km/h 97 % 0.00 in /  0 mm
10:30 42.3 °F /  5.7 °C 41.5 °F /  5.3 °C 29.73 in /  1006.7 hPa ENE 3.6 mph /  5.8 km/h 5.0 mph /  8 km/h 97 % 0.00 in /  0 mm
10:35 42.3 °F /  5.7 °C 41.5 °F /  5.3 °C 29.73 in /  1006.7 hPa ENE 1.2 mph /  1.9 km/h 3.5 mph /  5.6 km/h 97 % 0.00 in /  0 mm
10:40 42.4 °F /  5.8 °C 41.6 °F /  5.3 °C 29.73 in /  1006.7 hPa NNE 1.7 mph /  2.7 km/h 3.0 mph /  4.8 km/h 97 % 0.00 in /  0 mm
10:46 42.6 °F /  5.9 °C 41.8 °F /  5.4 °C 29.73 in /  1006.7 hPa ENE 2.9 mph /  4.7 km/h 4.6 mph /  7.4 km/h 97 % 0.00 in /  0 mm
10:51 42.6 °F /  5.9 °C 41.8 °F /  5.4 °C 29.73 in /  1006.7 hPa NNE 3.0 mph /  4.8 km/h 4.0 mph /  6.4 km/h 97 % 0.00 in /  0 mm
10:56 42.7 °F /  5.9 °C 41.9 °F /  5.5 °C 29.73 in /  1006.7 hPa NNE 2.4 mph /  3.9 km/h 4.6 mph /  7.4 km/h 97 % 0.00 in /  0 mm
11:01 42.9 °F /  6.1 °C 42.1 °F /  5.6 °C 29.73 in /  1006.7 hPa NNE 1.7 mph /  2.7 km/h 3.5 mph /  5.6 km/h 97 % 0.00 in /  0 mm
11:06 43.0 °F /  6.1 °C 42.2 °F /  5.7 °C 29.73 in /  1006.7 hPa NNE 5.0 mph /  8 km/h 8.1 mph /  13 km/h 97 % 0.00 in /  0 mm
11:11 43.0 °F /  6.1 °C 42.2 °F /  5.7 °C 29.72 in /  1006.3 hPa NE 3.9 mph /  6.3 km/h 5.8 mph /  9.3 km/h 97 % 0.00 in /  0 mm
11:16 43.0 °F /  6.1 °C 42.2 °F /  5.7 °C 29.72 in /  1006.3 hPa ENE 3.0 mph /  4.8 km/h 4.0 mph /  6.4 km/h 97 % 0.00 in /  0 mm
11:21 43.0 °F /  6.1 °C 42.2 °F /  5.7 °C 29.72 in /  1006.3 hPa NNE 2.2 mph /  3.5 km/h 4.0 mph /  6.4 km/h 97 % 0.00 in /  0 mm
11:26 43.1 °F /  6.2 °C 42.3 °F /  5.7 °C 29.72 in /  1006.3 hPa NNE 2.8 mph /  4.5 km/h 4.6 mph /  7.4 km/h 97 % 0.00 in /  0 mm
11:31 43.2 °F /  6.2 °C 42.4 °F /  5.8 °C 29.72 in /  1006.3 hPa NNE 2.9 mph /  4.7 km/h 4.6 mph /  7.4 km/h 97 % 0.00 in /  0 mm
11:36 43.3 °F /  6.3 °C 42.5 °F /  5.8 °C 29.72 in /  1006.3 hPa NNE 2.8 mph /  4.5 km/h 4.6 mph /  7.4 km/h 97 % 0.00 in /  0 mm
11:41 43.2 °F /  6.2 °C 42.4 °F /  5.8 °C 29.72 in /  1006.3 hPa ENE 2.5 mph /  4 km/h 5.8 mph /  9.3 km/h 97 % 0.00 in /  0 mm
11:46 43.1 °F /  6.2 °C 42.0 °F /  5.6 °C 29.72 in /  1006.3 hPa ENE 2.5 mph /  4 km/h 3.5 mph /  5.6 km/h 96 % 0.00 in /  0 mm
11:51 42.9 °F /  6.1 °C 41.8 °F /  5.4 °C 29.71 in /  1006 hPa ENE 2.6 mph /  4.2 km/h 4.0 mph /  6.4 km/h 96 % 0.00 in /  0 mm
11:56 42.7 °F /  5.9 °C 41.6 °F /  5.3 °C 29.71 in /  1006 hPa ENE 3.2 mph /  5.1 km/h 7.0 mph /  11.3 km/h 96 % 0.00 in /  0 mm
12:01 42.4 °F /  5.8 °C 41.3 °F /  5.2 °C 29.71 in /  1006 hPa ENE 3.9 mph /  6.3 km/h 9.2 mph /  14.8 km/h 96 % 0.00 in /  0 mm
12:06 42.1 °F /  5.6 °C 41.0 °F /  5 °C 29.71 in /  1006 hPa NE 1.5 mph /  2.4 km/h 4.6 mph /  7.4 km/h 96 % 0.00 in /  0 mm
12:11 42.0 °F /  5.6 °C 40.9 °F /  4.9 °C 29.71 in /  1006 hPa ENE 3.6 mph /  5.8 km/h 7.0 mph /  11.3 km/h 96 % 0.00 in /  0 mm
12:17 41.8 °F /  5.4 °C 40.7 °F /  4.8 °C 29.70 in /  1005.6 hPa NE 3.1 mph /  5 km/h 3.5 mph /  5.6 km/h 96 % 0.00 in /  0 mm
12:22 41.7 °F /  5.4 °C 40.6 °F /  4.8 °C 29.70 in /  1005.6 hPa ENE 4.6 mph /  7.4 km/h 5.0 mph /  8 km/h 96 % 0.00 in /  0 mm
12:27 41.5 °F /  5.3 °C 40.4 °F /  4.7 °C 29.70 in /  1005.6 hPa NE 4.7 mph /  7.6 km/h 6.9 mph /  11.1 km/h 96 % 0.00 in /  0 mm
12:32 41.5 °F /  5.3 °C 40.4 °F /  4.7 °C 29.70 in /  1005.6 hPa NE 2.8 mph /  4.5 km/h 4.6 mph /  7.4 km/h 96 % 0.00 in /  0 mm
12:37 41.4 °F /  5.2 °C 40.3 °F /  4.6 °C 29.69 in /  1005.3 hPa ENE 4.1 mph /  6.6 km/h 8.1 mph /  13 km/h 96 % 0.00 in /  0 mm
12:42 41.3 °F /  5.2 °C 40.2 °F /  4.6 °C 29.69 in /  1005.3 hPa ENE 3.4 mph /  5.5 km/h 6.9 mph /  11.1 km/h 96 % 0.00 in /  0 mm
12:47 41.4 °F /  5.2 °C 40.3 °F /  4.6 °C 29.69 in /  1005.3 hPa ENE 3.4 mph /  5.5 km/h 4.0 mph /  6.4 km/h 96 % 0.00 in /  0 mm
12:52 41.5 °F /  5.3 °C 40.7 °F /  4.8 °C 29.69 in /  1005.3 hPa ENE 2.3 mph /  3.7 km/h 5.8 mph /  9.3 km/h 97 % 0.00 in /  0 mm
12:57 41.6 °F /  5.3 °C 40.8 °F /  4.9 °C 29.68 in /  1005 hPa ENE 3.6 mph /  5.8 km/h 6.9 mph /  11.1 km/h 97 % 0.00 in /  0 mm
13:02 41.6 °F /  5.3 °C 40.8 °F /  4.9 °C 29.68 in /  1005 hPa ENE 3.4 mph /  5.5 km/h 5.0 mph /  8 km/h 97 % 0.00 in /  0 mm
13:07 41.6 °F /  5.3 °C 40.8 °F /  4.9 °C 29.68 in /  1005 hPa ENE 4.1 mph /  6.6 km/h 9.2 mph /  14.8 km/h 97 % 0.00 in /  0 mm
13:12 41.6 °F /  5.3 °C 40.8 °F /  4.9 °C 29.68 in /  1005 hPa ENE 3.5 mph /  5.6 km/h 5.0 mph /  8 km/h 97 % 0.00 in /  0 mm
13:17 41.7 °F /  5.4 °C 40.9 °F /  4.9 °C 29.68 in /  1005 hPa NE 3.6 mph /  5.8 km/h 6.9 mph /  11.1 km/h 97 % 0.00 in /  0 mm
13:22 41.8 °F /  5.4 °C 41.0 °F /  5 °C 29.68 in /  1005 hPa ENE 2.5 mph /  4 km/h 3.5 mph /  5.6 km/h 97 % 0.00 in /  0 mm
13:27 42.0 °F /  5.6 °C 41.2 °F /  5.1 °C 29.68 in /  1005 hPa East 2.2 mph /  3.5 km/h 4.6 mph /  7.4 km/h 97 % 0.00 in /  0 mm
13:33 42.2 °F /  5.7 °C 41.4 °F /  5.2 °C 29.68 in /  1005 hPa ENE 4.2 mph /  6.8 km/h 8.1 mph /  13 km/h 97 % 0.00 in /  0 mm
13:38 42.2 °F /  5.7 °C 41.4 °F /  5.2 °C 29.67 in /  1004.6 hPa NE 4.1 mph /  6.6 km/h 8.0 mph /  12.9 km/h 97 % 0.00 in /  0 mm
13:43 42.5 °F /  5.8 °C 41.7 °F /  5.4 °C 29.67 in /  1004.6 hPa ENE 3.3 mph /  5.3 km/h 6.0 mph /  9.7 km/h 97 % 0.00 in /  0 mm
13:48 42.8 °F /  6 °C 42.0 °F /  5.6 °C 29.67 in /  1004.6 hPa ENE 5.1 mph /  8.2 km/h 9.2 mph /  14.8 km/h 97 % 0.00 in /  0 mm
13:53 42.9 °F /  6.1 °C 42.1 °F /  5.6 °C 29.67 in /  1004.6 hPa NE 4.1 mph /  6.6 km/h 6.9 mph /  11.1 km/h 97 % 0.00 in /  0 mm
13:58 42.9 °F /  6.1 °C 41.8 °F /  5.4 °C 29.67 in /  1004.6 hPa East 4.8 mph /  7.7 km/h 6.9 mph /  11.1 km/h 96 % 0.00 in /  0 mm
14:03 42.9 °F /  6.1 °C 41.8 °F /  5.4 °C 29.67 in /  1004.6 hPa East 4.5 mph /  7.2 km/h 6.0 mph /  9.7 km/h 96 % 0.00 in /  0 mm
14:08 43.0 °F /  6.1 °C 41.9 °F /  5.5 °C 29.67 in /  1004.6 hPa ENE 3.6 mph /  5.8 km/h 5.8 mph /  9.3 km/h 96 % 0.00 in /  0 mm
14:13 43.0 °F /  6.1 °C 41.9 °F /  5.5 °C 29.67 in /  1004.6 hPa ENE 4.2 mph /  6.8 km/h 6.9 mph /  11.1 km/h 96 % 0.00 in /  0 mm
14:15 42.9 °F /  6.1 °C 41.8 °F /  5.4 °C 29.67 in /  1004.6 hPa ENE 3.7 mph /  6 km/h 6.9 mph /  11.1 km/h 96 % 0.00 in /  0 mm
14:20 43.1 °F /  6.2 °C 42.0 °F /  5.6 °C 29.67 in /  1004.6 hPa ENE 3.9 mph /  6.3 km/h 8.1 mph /  13 km/h 96 % 0.00 in /  0 mm
14:25 43.0 °F /  6.1 °C 41.7 °F /  5.4 °C 29.68 in /  1005 hPa ENE 2.2 mph /  3.5 km/h 4.6 mph /  7.4 km/h 95 % 0.00 in /  0 mm
14:30 42.9 °F /  6.1 °C 41.6 °F /  5.3 °C 29.68 in /  1005 hPa NE 2.3 mph /  3.7 km/h 3.5 mph /  5.6 km/h 95 % 0.00 in /  0 mm
14:35 42.8 °F /  6 °C 41.5 °F /  5.3 °C 29.68 in /  1005 hPa ENE 3.4 mph /  5.5 km/h 4.0 mph /  6.4 km/h 95 % 0.00 in /  0 mm
14:40 42.8 °F /  6 °C 41.5 °F /  5.3 °C 29.68 in /  1005 hPa NE 2.9 mph /  4.7 km/h 5.0 mph /  8 km/h 95 % 0.00 in /  0 mm
14:45 42.8 °F /  6 °C 41.5 °F /  5.3 °C 29.69 in /  1005.3 hPa ENE 3.4 mph /  5.5 km/h 4.6 mph /  7.4 km/h 95 % 0.00 in /  0 mm
14:50 42.8 °F /  6 °C 41.5 °F /  5.3 °C 29.68 in /  1005 hPa NE 2.0 mph /  3.2 km/h 5.8 mph /  9.3 km/h 95 % 0.00 in /  0 mm
14:55 42.8 °F /  6 °C 41.5 °F /  5.3 °C 29.68 in /  1005 hPa NE 2.9 mph /  4.7 km/h 5.0 mph /  8 km/h 95 % 0.00 in /  0 mm
15:00 42.8 °F /  6 °C 41.5 °F /  5.3 °C 29.68 in /  1005 hPa NE 3.8 mph /  6.1 km/h 5.8 mph /  9.3 km/h 95 % 0.00 in /  0 mm
15:06 42.9 °F /  6.1 °C 41.6 °F /  5.3 °C 29.68 in /  1005 hPa NE 3.7 mph /  6 km/h 4.6 mph /  7.4 km/h 95 % 0.00 in /  0 mm
15:11 42.8 °F /  6 °C 41.5 °F /  5.3 °C 29.68 in /  1005 hPa ENE 4.0 mph /  6.4 km/h 9.2 mph /  14.8 km/h 95 % 0.00 in /  0 mm
15:16 42.9 °F /  6.1 °C 41.6 °F /  5.3 °C 29.67 in /  1004.6 hPa NE 3.7 mph /  6 km/h 6.9 mph /  11.1 km/h 95 % 0.00 in /  0 mm
15:21 42.9 °F /  6.1 °C 41.6 °F /  5.3 °C 29.68 in /  1005 hPa ENE 3.7 mph /  6 km/h 5.8 mph /  9.3 km/h 95 % 0.00 in /  0 mm
15:26 42.9 °F /  6.1 °C 41.6 °F /  5.3 °C 29.68 in /  1005 hPa ENE 4.1 mph /  6.6 km/h 8.1 mph /  13 km/h 95 % 0.00 in /  0 mm
15:31 43.2 °F /  6.2 °C 42.1 °F /  5.6 °C 29.68 in /  1005 hPa ENE 3.0 mph /  4.8 km/h 6.9 mph /  11.1 km/h 96 % 0.00 in /  0 mm
15:36 43.4 °F /  6.3 °C 42.3 °F /  5.7 °C 29.69 in /  1005.3 hPa NE 3.8 mph /  6.1 km/h 7.0 mph /  11.3 km/h 96 % 0.00 in /  0 mm
15:41 43.5 °F /  6.4 °C 42.2 °F /  5.7 °C 29.69 in /  1005.3 hPa ENE 4.7 mph /  7.6 km/h 6.9 mph /  11.1 km/h 95 % 0.00 in /  0 mm
15:46 43.5 °F /  6.4 °C 42.2 °F /  5.7 °C 29.69 in /  1005.3 hPa ENE 2.8 mph /  4.5 km/h 4.6 mph /  7.4 km/h 95 % 0.00 in /  0 mm
15:51 43.6 °F /  6.4 °C 42.3 °F /  5.7 °C 29.69 in /  1005.3 hPa East 3.3 mph /  5.3 km/h 4.6 mph /  7.4 km/h 95 % 0.00 in /  0 mm
15:56 43.7 °F /  6.5 °C 42.4 °F /  5.8 °C 29.69 in /  1005.3 hPa ENE 3.0 mph /  4.8 km/h 5.0 mph /  8 km/h 95 % 0.00 in /  0 mm
16:01 43.8 °F /  6.6 °C 42.5 °F /  5.8 °C 29.70 in /  1005.6 hPa ENE 2.1 mph /  3.4 km/h 3.5 mph /  5.6 km/h 95 % 0.00 in /  0 mm
16:06 43.9 °F /  6.6 °C 42.6 °F /  5.9 °C 29.69 in /  1005.3 hPa ENE 2.7 mph /  4.3 km/h 5.0 mph /  8 km/h 95 % 0.00 in /  0 mm
16:11 43.9 °F /  6.6 °C 42.6 °F /  5.9 °C 29.69 in /  1005.3 hPa ENE 2.7 mph /  4.3 km/h 4.0 mph /  6.4 km/h 95 % 0.00 in /  0 mm
16:16 43.8 °F /  6.6 °C 42.5 °F /  5.8 °C 29.70 in /  1005.6 hPa ENE 3.2 mph /  5.1 km/h 4.6 mph /  7.4 km/h 95 % 0.00 in /  0 mm
16:21 43.7 °F /  6.5 °C 42.4 °F /  5.8 °C 29.70 in /  1005.6 hPa ENE 3.4 mph /  5.5 km/h 4.6 mph /  7.4 km/h 95 % 0.00 in /  0 mm
16:26 43.6 °F /  6.4 °C 42.3 °F /  5.7 °C 29.70 in /  1005.6 hPa ENE 3.5 mph /  5.6 km/h 5.0 mph /  8 km/h 95 % 0.00 in /  0 mm
16:32 43.7 °F /  6.5 °C 42.4 °F /  5.8 °C 29.70 in /  1005.6 hPa ENE 6.5 mph /  10.5 km/h 8.1 mph /  13 km/h 95 % 0.00 in /  0 mm
16:37 43.6 °F /  6.4 °C 42.0 °F /  5.6 °C 29.70 in /  1005.6 hPa East 2.7 mph /  4.3 km/h 4.6 mph /  7.4 km/h 94 % 0.00 in /  0 mm
16:42 43.5 °F /  6.4 °C 41.9 °F /  5.5 °C 29.70 in /  1005.6 hPa ENE 3.1 mph /  5 km/h 4.6 mph /  7.4 km/h 94 % 0.00 in /  0 mm
16:47 43.4 °F /  6.3 °C 41.8 °F /  5.4 °C 29.70 in /  1005.6 hPa East 3.7 mph /  6 km/h 6.9 mph /  11.1 km/h 94 % 0.00 in /  0 mm
16:52 43.4 °F /  6.3 °C 42.1 °F /  5.6 °C 29.71 in /  1006 hPa East 2.7 mph /  4.3 km/h 3.5 mph /  5.6 km/h 95 % 0.00 in /  0 mm
16:57 43.4 °F /  6.3 °C 42.1 °F /  5.6 °C 29.71 in /  1006 hPa East 1.2 mph /  1.9 km/h 3.0 mph /  4.8 km/h 95 % 0.00 in /  0 mm
17:02 43.4 °F /  6.3 °C 42.1 °F /  5.6 °C 29.71 in /  1006 hPa East 2.2 mph /  3.5 km/h 3.5 mph /  5.6 km/h 95 % 0.00 in /  0 mm
17:07 43.4 °F /  6.3 °C 42.1 °F /  5.6 °C 29.72 in /  1006.3 hPa ENE 2.7 mph /  4.3 km/h 4.6 mph /  7.4 km/h 95 % 0.00 in /  0 mm
17:12 43.5 °F /  6.4 °C 42.2 °F /  5.7 °C 29.72 in /  1006.3 hPa ENE 2.8 mph /  4.5 km/h 4.0 mph /  6.4 km/h 95 % 0.00 in /  0 mm
17:17 43.4 °F /  6.3 °C 42.1 °F /  5.6 °C 29.72 in /  1006.3 hPa East 2.1 mph /  3.4 km/h 3.5 mph /  5.6 km/h 95 % 0.00 in /  0 mm
17:22 43.4 °F /  6.3 °C 42.1 °F /  5.6 °C 29.72 in /  1006.3 hPa East 2.0 mph /  3.2 km/h 3.5 mph /  5.6 km/h 95 % 0.00 in /  0 mm
17:27 43.4 °F /  6.3 °C 42.1 °F /  5.6 °C 29.72 in /  1006.3 hPa East 2.7 mph /  4.3 km/h 3.5 mph /  5.6 km/h 95 % 0.00 in /  0 mm
17:32 43.5 °F /  6.4 °C 42.2 °F /  5.7 °C 29.72 in /  1006.3 hPa East 3.5 mph /  5.6 km/h 5.8 mph /  9.3 km/h 95 % 0.00 in /  0 mm
17:37 43.6 °F /  6.4 °C 42.3 °F /  5.7 °C 29.72 in /  1006.3 hPa ENE 2.6 mph /  4.2 km/h 4.6 mph /  7.4 km/h 95 % 0.00 in /  0 mm
17:42 43.6 °F /  6.4 °C 42.3 °F /  5.7 °C 29.72 in /  1006.3 hPa ENE 2.9 mph /  4.7 km/h 4.6 mph /  7.4 km/h 95 % 0.00 in /  0 mm
17:47 43.6 °F /  6.4 °C 42.3 °F /  5.7 °C 29.72 in /  1006.3 hPa ENE 1.8 mph /  2.9 km/h 3.0 mph /  4.8 km/h 95 % 0.00 in /  0 mm
17:52 43.6 °F /  6.4 °C 42.3 °F /  5.7 °C 29.72 in /  1006.3 hPa East 1.7 mph /  2.7 km/h 4.6 mph /  7.4 km/h 95 % 0.00 in /  0 mm
17:57 43.7 °F /  6.5 °C 42.4 °F /  5.8 °C 29.71 in /  1006 hPa East 2.4 mph /  3.9 km/h 5.8 mph /  9.3 km/h 95 % 0.00 in /  0 mm
18:03 43.8 °F /  6.6 °C 42.2 °F /  5.7 °C 29.72 in /  1006.3 hPa East 2.7 mph /  4.3 km/h 5.8 mph /  9.3 km/h 94 % 0.00 in /  0 mm
18:08 43.8 °F /  6.6 °C 42.2 °F /  5.7 °C 29.71 in /  1006 hPa East 6.1 mph /  9.8 km/h 8.1 mph /  13 km/h 94 % 0.00 in /  0 mm
18:13 43.9 °F /  6.6 °C 42.3 °F /  5.7 °C 29.72 in /  1006.3 hPa ENE 5.5 mph /  8.9 km/h 6.9 mph /  11.1 km/h 94 % 0.00 in /  0 mm
18:18 43.9 °F /  6.6 °C 42.3 °F /  5.7 °C 29.72 in /  1006.3 hPa East 3.2 mph /  5.1 km/h 4.6 mph /  7.4 km/h 94 % 0.00 in /  0 mm
18:23 44.0 °F /  6.7 °C 42.4 °F /  5.8 °C 29.72 in /  1006.3 hPa ENE 3.8 mph /  6.1 km/h 6.9 mph /  11.1 km/h 94 % 0.00 in /  0 mm
18:28 44.1 °F /  6.7 °C 42.5 °F /  5.8 °C 29.72 in /  1006.3 hPa East 5.0 mph /  8 km/h 7.0 mph /  11.3 km/h 94 % 0.00 in /  0 mm
18:33 44.5 °F /  6.9 °C 42.9 °F /  6.1 °C 29.72 in /  1006.3 hPa East 5.9 mph /  9.5 km/h 10.4 mph /  16.7 km/h 94 % 0.00 in /  0 mm
18:38 45.0 °F /  7.2 °C 43.1 °F /  6.2 °C 29.73 in /  1006.7 hPa NE 6.8 mph /  10.9 km/h 10.4 mph /  16.7 km/h 93 % 0.00 in /  0 mm
18:43 45.4 °F /  7.4 °C 43.2 °F /  6.2 °C 29.73 in /  1006.7 hPa ENE 5.8 mph /  9.3 km/h 8.1 mph /  13 km/h 92 % 0.00 in /  0 mm
18:48 45.9 °F /  7.7 °C 43.7 °F /  6.5 °C 29.73 in /  1006.7 hPa ENE 9.0 mph /  14.5 km/h 13.8 mph /  22.2 km/h 92 % 0.00 in /  0 mm
18:53 46.5 °F /  8.1 °C 44.0 °F /  6.7 °C 29.73 in /  1006.7 hPa East 9.5 mph /  15.3 km/h 13.8 mph /  22.2 km/h 91 % 0.00 in /  0 mm
18:58 47.1 °F /  8.4 °C 44.0 °F /  6.7 °C 29.74 in /  1007 hPa East 10.0 mph /  16.1 km/h 13.8 mph /  22.2 km/h 89 % 0.00 in /  0 mm
19:03 47.5 °F /  8.6 °C 44.1 °F /  6.7 °C 29.74 in /  1007 hPa East 10.1 mph /  16.3 km/h 14.0 mph /  22.5 km/h 88 % 0.00 in /  0 mm
19:08 47.7 °F /  8.7 °C 44.0 °F /  6.7 °C 29.74 in /  1007 hPa East 14.2 mph /  22.9 km/h 19.6 mph /  31.5 km/h 87 % 0.00 in /  0 mm
19:13 47.8 °F /  8.8 °C 44.1 °F /  6.7 °C 29.74 in /  1007 hPa East 13.0 mph /  20.9 km/h 18.4 mph /  29.6 km/h 87 % 0.00 in /  0 mm
19:18 47.7 °F /  8.7 °C 44.0 °F /  6.7 °C 29.75 in /  1007.3 hPa East 12.6 mph /  20.3 km/h 16.1 mph /  25.9 km/h 87 % 0.00 in /  0 mm
19:23 47.4 °F /  8.6 °C 43.4 °F /  6.3 °C 29.76 in /  1007.7 hPa ENE 10.8 mph /  17.4 km/h 14.0 mph /  22.5 km/h 86 % 0.00 in /  0 mm
19:28 47.1 °F /  8.4 °C 43.4 °F /  6.3 °C 29.75 in /  1007.3 hPa East 11.1 mph /  17.9 km/h 13.8 mph /  22.2 km/h 87 % 0.00 in /  0 mm
19:33 46.9 °F /  8.3 °C 43.2 °F /  6.2 °C 29.75 in /  1007.3 hPa East 12.3 mph /  19.8 km/h 16.1 mph /  25.9 km/h 87 % 0.00 in /  0 mm
19:39 46.7 °F /  8.2 °C 43.3 °F /  6.3 °C 29.76 in /  1007.7 hPa East 10.0 mph /  16.1 km/h 15.0 mph /  24.1 km/h 88 % 0.00 in /  0 mm
19:44 46.4 °F /  8 °C 43.0 °F /  6.1 °C 29.76 in /  1007.7 hPa ENE 10.3 mph /  16.6 km/h 13.8 mph /  22.2 km/h 88 % 0.00 in /  0 mm
19:49 46.2 °F /  7.9 °C 42.8 °F /  6 °C 29.76 in /  1007.7 hPa East 10.3 mph /  16.6 km/h 13.8 mph /  22.2 km/h 88 % 0.00 in /  0 mm
19:54 46.0 °F /  7.8 °C 42.7 °F /  5.9 °C 29.76 in /  1007.7 hPa East 12.0 mph /  19.3 km/h 16.0 mph /  25.7 km/h 88 % 0.00 in /  0 mm
19:59 45.8 °F /  7.7 °C 42.7 °F /  5.9 °C 29.76 in /  1007.7 hPa East 11.5 mph /  18.5 km/h 14.0 mph /  22.5 km/h 89 % 0.00 in /  0 mm
20:04 45.6 °F /  7.6 °C 42.6 °F /  5.9 °C 29.76 in /  1007.7 hPa East 10.0 mph /  16.1 km/h 16.0 mph /  25.7 km/h 89 % 0.00 in /  0 mm
20:09 45.5 °F /  7.5 °C 42.8 °F /  6 °C 29.77 in /  1008 hPa East 10.0 mph /  16.1 km/h 15.0 mph /  24.1 km/h 90 % 0.00 in /  0 mm
20:14 45.5 °F /  7.5 °C 42.7 °F /  5.9 °C 29.77 in /  1008 hPa East 12.0 mph /  19.3 km/h 15.0 mph /  24.1 km/h 90 % 0.00 in /  0 mm
20:19 45.5 °F /  7.5 °C 42.7 °F /  5.9 °C 29.77 in /  1008 hPa East 9.0 mph /  14.5 km/h 16.0 mph /  25.7 km/h 90 % 0.00 in /  0 mm
20:24 45.5 °F /  7.5 °C 42.7 °F /  5.9 °C 29.77 in /  1008 hPa East 12.0 mph /  19.3 km/h 16.0 mph /  25.7 km/h 90 % 0.00 in /  0 mm
20:29 45.6 °F /  7.6 °C 42.8 °F /  6 °C 29.76 in /  1007.7 hPa East 10.0 mph /  16.1 km/h 15.0 mph /  24.1 km/h 90 % 0.00 in /  0 mm
20:34 45.6 °F /  7.6 °C 42.8 °F /  6 °C 29.76 in /  1007.7 hPa East 12.0 mph /  19.3 km/h 18.0 mph /  29 km/h 90 % 0.00 in /  0 mm
20:39 45.6 °F /  7.6 °C 42.8 °F /  6 °C 29.76 in /  1007.7 hPa East 12.0 mph /  19.3 km/h 17.0 mph /  27.4 km/h 90 % 0.00 in /  0 mm
20:44 45.6 °F /  7.6 °C 42.8 °F /  6 °C 29.76 in /  1007.7 hPa East 13.0 mph /  20.9 km/h 16.0 mph /  25.7 km/h 90 % 0.00 in /  0 mm
20:49 45.5 °F /  7.5 °C 42.7 °F /  5.9 °C 29.76 in /  1007.7 hPa East 12.0 mph /  19.3 km/h 16.0 mph /  25.7 km/h 90 % 0.00 in /  0 mm
20:54 45.4 °F /  7.4 °C 42.6 °F /  5.9 °C 29.76 in /  1007.7 hPa East 10.0 mph /  16.1 km/h 16.0 mph /  25.7 km/h 90 % 0.00 in /  0 mm
20:59 45.4 °F /  7.4 °C 42.6 °F /  5.9 °C 29.77 in /  1008 hPa East 10.4 mph /  16.7 km/h 13.8 mph /  22.2 km/h 90 % 0.00 in /  0 mm
21:04 45.2 °F /  7.3 °C 42.4 °F /  5.8 °C 29.78 in /  1008.4 hPa East 10.6 mph /  17.1 km/h 13.8 mph /  22.2 km/h 90 % 0.00 in /  0 mm
21:09 45.0 °F /  7.2 °C 42.2 °F /  5.7 °C 29.78 in /  1008.4 hPa East 10.1 mph /  16.3 km/h 12.7 mph /  20.4 km/h 90 % 0.00 in /  0 mm
21:14 44.9 °F /  7.2 °C 42.1 °F /  5.6 °C 29.78 in /  1008.4 hPa ENE 9.7 mph /  15.6 km/h 11.5 mph /  18.5 km/h 90 % 0.00 in /  0 mm
21:19 44.8 °F /  7.1 °C 42.0 °F /  5.6 °C 29.78 in /  1008.4 hPa East 8.6 mph /  13.8 km/h 16.1 mph /  25.9 km/h 90 % 0.00 in /  0 mm
21:24 44.7 °F /  7.1 °C 42.2 °F /  5.7 °C 29.78 in /  1008.4 hPa East 11.5 mph /  18.5 km/h 13.8 mph /  22.2 km/h 91 % 0.00 in /  0 mm
21:29 44.7 °F /  7.1 °C 42.2 °F /  5.7 °C 29.78 in /  1008.4 hPa East 9.3 mph /  15 km/h 13.0 mph /  20.9 km/h 91 % 0.00 in /  0 mm
21:34 44.7 °F /  7.1 °C 42.2 °F /  5.7 °C 29.79 in /  1008.7 hPa East 11.8 mph /  19 km/h 15.0 mph /  24.1 km/h 91 % 0.00 in /  0 mm
21:39 44.6 °F /  7 °C 42.1 °F /  5.6 °C 29.79 in /  1008.7 hPa East 10.3 mph /  16.6 km/h 13.8 mph /  22.2 km/h 91 % 0.00 in /  0 mm
21:44 44.6 °F /  7 °C 42.1 °F /  5.6 °C 29.79 in /  1008.7 hPa ENE 12.1 mph /  19.5 km/h 15.0 mph /  24.1 km/h 91 % 0.00 in /  0 mm
21:49 44.5 °F /  6.9 °C 42.0 °F /  5.6 °C 29.79 in /  1008.7 hPa East 11.2 mph /  18 km/h 16.1 mph /  25.9 km/h 91 % 0.00 in /  0 mm
21:54 44.4 °F /  6.9 °C 41.9 °F /  5.5 °C 29.79 in /  1008.7 hPa NE 10.7 mph /  17.2 km/h 16.1 mph /  25.9 km/h 91 % 0.00 in /  0 mm
21:59 44.3 °F /  6.8 °C 41.8 °F /  5.4 °C 29.79 in /  1008.7 hPa East 10.5 mph /  16.9 km/h 13.8 mph /  22.2 km/h 91 % 0.00 in /  0 mm
22:04 44.1 °F /  6.7 °C 41.6 °F /  5.3 °C 29.79 in /  1008.7 hPa East 9.4 mph /  15.1 km/h 16.1 mph /  25.9 km/h 91 % 0.00 in /  0 mm
22:10 44.0 °F /  6.7 °C 41.5 °F /  5.3 °C 29.80 in /  1009 hPa ENE 9.0 mph /  14.5 km/h 12.7 mph /  20.4 km/h 91 % 0.00 in /  0 mm
22:15 43.9 °F /  6.6 °C 41.4 °F /  5.2 °C 29.79 in /  1008.7 hPa East 10.3 mph /  16.6 km/h 17.3 mph /  27.8 km/h 91 % 0.00 in /  0 mm
22:20 43.9 °F /  6.6 °C 41.4 °F /  5.2 °C 29.79 in /  1008.7 hPa ENE 11.2 mph /  18 km/h 13.0 mph /  20.9 km/h 91 % 0.00 in /  0 mm
22:25 43.9 °F /  6.6 °C 41.7 °F /  5.4 °C 29.79 in /  1008.7 hPa East 12.5 mph /  20.1 km/h 18.4 mph /  29.6 km/h 92 % 0.00 in /  0 mm
22:30 43.9 °F /  6.6 °C 41.7 °F /  5.4 °C 29.80 in /  1009 hPa East 13.7 mph /  22 km/h 16.1 mph /  25.9 km/h 92 % 0.00 in /  0 mm
22:35 43.9 °F /  6.6 °C 41.7 °F /  5.4 °C 29.80 in /  1009 hPa ESE 12.1 mph /  19.5 km/h 13.8 mph /  22.2 km/h 92 % 0.00 in /  0 mm
22:40 43.8 °F /  6.6 °C 41.6 °F /  5.3 °C 29.80 in /  1009 hPa East 10.5 mph /  16.9 km/h 15.0 mph /  24.1 km/h 92 % 0.00 in /  0 mm
22:45 43.8 °F /  6.6 °C 41.9 °F /  5.5 °C 29.81 in /  1009.4 hPa ESE 13.9 mph /  22.4 km/h 20.0 mph /  32.2 km/h 93 % 0.00 in /  0 mm
22:50 43.7 °F /  6.5 °C 41.8 °F /  5.4 °C 29.81 in /  1009.4 hPa East 11.9 mph /  19.2 km/h 13.8 mph /  22.2 km/h 93 % 0.00 in /  0 mm
22:55 43.6 °F /  6.4 °C 41.7 °F /  5.4 °C 29.81 in /  1009.4 hPa East 10.0 mph /  16.1 km/h 13.8 mph /  22.2 km/h 93 % 0.00 in /  0 mm
23:00 43.6 °F /  6.4 °C 41.7 °F /  5.4 °C 29.81 in /  1009.4 hPa East 11.7 mph /  18.8 km/h 16.1 mph /  25.9 km/h 93 % 0.00 in /  0 mm
23:05 43.5 °F /  6.4 °C 41.6 °F /  5.3 °C 29.81 in /  1009.4 hPa East 10.4 mph /  16.7 km/h 14.0 mph /  22.5 km/h 93 % 0.00 in /  0 mm
23:06 43.5 °F /  6.4 °C 41.6 °F /  5.3 °C 29.81 in /  1009.4 hPa ENE 11.1 mph /  17.9 km/h 15.0 mph /  24.1 km/h 93 % 0.00 in /  0 mm
23:11 43.4 °F /  6.3 °C 41.5 °F /  5.3 °C 29.81 in /  1009.4 hPa East 11.5 mph /  18.5 km/h 15.0 mph /  24.1 km/h 93 % 0.00 in /  0 mm
23:16 43.3 °F /  6.3 °C 41.4 °F /  5.2 °C 29.81 in /  1009.4 hPa East 10.4 mph /  16.7 km/h 14.0 mph /  22.5 km/h 93 % 0.00 in /  0 mm
23:21 43.2 °F /  6.2 °C 41.6 °F /  5.3 °C 29.81 in /  1009.4 hPa NE 11.1 mph /  17.9 km/h 14.0 mph /  22.5 km/h 94 % 0.00 in /  0 mm
23:26 43.2 °F /  6.2 °C 41.6 °F /  5.3 °C 29.81 in /  1009.4 hPa ENE 9.9 mph /  15.9 km/h 12.7 mph /  20.4 km/h 94 % 0.00 in /  0 mm
23:31 43.1 °F /  6.2 °C 41.2 °F /  5.1 °C 29.81 in /  1009.4 hPa ENE 9.1 mph /  14.6 km/h 13.8 mph /  22.2 km/h 93 % 0.00 in /  0 mm
23:36 43.0 °F /  6.1 °C 41.1 °F /  5.1 °C 29.81 in /  1009.4 hPa ENE 8.3 mph /  13.4 km/h 10.4 mph /  16.7 km/h 93 % 0.00 in /  0 mm
23:41 42.9 °F /  6.1 °C 41.3 °F /  5.2 °C 29.81 in /  1009.4 hPa ENE 8.5 mph /  13.7 km/h 10.4 mph /  16.7 km/h 94 % 0.00 in /  0 mm
23:46 42.9 °F /  6.1 °C 41.3 °F /  5.2 °C 29.81 in /  1009.4 hPa ENE 8.2 mph /  13.2 km/h 12.7 mph /  20.4 km/h 94 % 0.00 in /  0 mm
23:51 42.8 °F /  6 °C 41.2 °F /  5.1 °C 29.82 in /  1009.7 hPa ENE 9.3 mph /  15 km/h 12.7 mph /  20.4 km/h 94 % 0.00 in /  0 mm
23:56 42.8 °F /  6 °C 41.2 °F /  5.1 °C 29.81 in /  1009.4 hPa ENE 9.5 mph /  15.3 km/h 13.8 mph /  22.2 km/h 94 % 0.00 in /  0 mm
Crab Meadow Weather
Compliments of Weather Underground - 3 mb

Script developed by  Jim McMurry - jmcmurry@mwt.net Adapted for the template by  Wim van der Kuil - Leuven-Template.eu

Lightning: Lightning's return stroke is hotter than the surface of the sun. Lightning is 50,000 degrees F. The sun is about 11,000 degrees F.